createdAt,value
2019-02-22T00:02:38.581Z,-0.20
2019-02-22T00:12:44.608Z,-0.10
2019-02-22T00:22:53.007Z,-0.20
2019-02-22T00:33:00.165Z,-0.40
2019-02-22T00:43:06.235Z,-0.80
2019-02-22T00:53:16.573Z,-0.80
2019-02-22T01:03:23.241Z,-1.10
2019-02-22T01:13:31.779Z,-1.20
2019-02-22T01:23:39.891Z,-1.30
2019-02-22T01:33:46.085Z,-1.30
2019-02-22T01:43:52.797Z,-1.20
2019-02-22T01:53:58.780Z,-1.20
2019-02-22T02:04:06.001Z,-1.30
2019-02-22T02:14:11.734Z,-1.30
2019-02-22T02:24:18.156Z,-1.40
2019-02-22T02:34:26.118Z,-1.40
2019-02-22T02:44:34.751Z,-1.40
2019-02-22T02:54:42.639Z,-1.50
2019-02-22T03:04:48.578Z,-1.80
2019-02-22T03:14:58.095Z,-2.00
2019-02-22T03:25:04.041Z,-2.10
2019-02-22T03:35:09.903Z,-2.30
2019-02-22T03:45:17.330Z,-2.40
2019-02-22T03:55:25.500Z,-2.60
2019-02-22T04:05:31.794Z,-2.70
2019-02-22T04:15:40.726Z,-2.80
2019-02-22T04:25:48.315Z,-3.00
2019-02-22T04:35:55.098Z,-3.20
2019-02-22T04:46:03.944Z,-3.30
2019-02-22T04:56:13.329Z,-3.40
2019-02-22T05:06:20.088Z,-3.60
2019-02-22T05:16:26.609Z,-3.80
2019-02-22T05:26:35.087Z,-4.00
2019-02-22T05:36:44.050Z,-4.10
2019-02-22T05:46:59.672Z,-4.30
2019-02-22T05:56:56.911Z,-4.30
2019-02-22T06:07:03.139Z,-3.40
2019-02-22T06:17:14.575Z,-2.40
2019-02-22T06:27:16.357Z,-2.10
2019-02-22T06:37:22.184Z,-1.40
2019-02-22T06:47:28.585Z,-1.20
2019-02-22T06:57:34.228Z,-1.50
2019-02-22T07:07:41.721Z,-1.40
2019-02-22T07:17:49.490Z,-1.40
2019-02-22T07:27:57.283Z,-1.50
2019-02-22T07:38:03.387Z,-1.70
2019-02-22T07:48:09.479Z,-2.30
2019-02-22T07:58:15.719Z,-2.50
2019-02-22T08:08:22.335Z,-2.40
2019-02-22T08:18:28.289Z,-2.00
2019-02-22T08:28:36.122Z,-2.10
2019-02-22T08:38:42.582Z,-2.10
2019-02-22T08:48:49.190Z,-2.20
2019-02-22T08:58:55.730Z,-2.40
2019-02-22T09:09:05.696Z,-2.20
2019-02-22T09:19:13.267Z,-2.40
2019-02-22T09:29:20.935Z,-2.70
2019-02-22T09:39:28.483Z,-2.60
2019-02-22T09:49:36.065Z,-2.80
2019-02-22T09:59:43.020Z,-2.90
2019-02-22T10:09:52.899Z,-2.90
2019-02-22T10:20:01.471Z,-2.80
2019-02-22T10:30:07.142Z,-2.90
2019-02-22T10:40:13.380Z,-2.90
2019-02-22T10:50:20.074Z,-2.90
2019-02-22T11:00:25.627Z,-2.70
2019-02-22T11:10:31.364Z,-2.60
2019-02-22T11:20:39.578Z,-2.00
2019-02-22T11:30:45.280Z,-2.10
2019-02-22T11:40:51.559Z,-2.20
2019-02-22T11:50:57.299Z,-2.60
2019-02-22T12:01:03.124Z,-2.30
2019-02-22T12:11:09.342Z,-2.30
2019-02-22T12:21:15.806Z,-2.10
2019-02-22T12:31:23.020Z,-1.90
2019-02-22T12:41:29.291Z,-2.10
2019-02-22T12:51:35.326Z,-2.30
2019-02-22T13:01:41.382Z,-2.30
2019-02-22T13:11:48.329Z,-2.00
2019-02-22T13:21:55.909Z,-1.90
2019-02-22T13:32:02.054Z,-1.70
2019-02-22T13:42:08.007Z,-1.90
2019-02-22T13:52:14.125Z,-1.70
2019-02-22T14:02:19.700Z,-1.90
2019-02-22T14:12:27.819Z,-1.60
2019-02-22T14:22:34.083Z,-1.90
2019-02-22T14:32:40.591Z,-1.80
2019-02-22T14:42:48.177Z,-1.80
2019-02-22T14:52:54.013Z,-1.70
2019-02-22T15:03:00.215Z,-1.80
2019-02-22T15:13:06.101Z,-1.90
2019-02-22T15:23:11.867Z,-1.90
2019-02-22T15:33:17.559Z,-2.00
2019-02-22T15:43:23.375Z,-2.10
2019-02-22T15:53:29.421Z,-2.20
2019-02-22T16:03:52.774Z,-2.30
2019-02-22T16:14:00.146Z,-2.40
2019-02-22T16:24:06.292Z,-2.50
2019-02-22T16:34:13.592Z,-2.60
2019-02-22T16:44:19.078Z,-2.60
2019-02-22T16:54:24.778Z,-2.70
2019-02-22T17:04:31.494Z,-2.80
2019-02-22T17:14:36.790Z,-2.80
2019-02-22T17:24:42.319Z,-2.90
2019-02-22T17:34:47.646Z,-2.90
2019-02-22T17:44:53.181Z,-3.00
2019-02-22T17:54:59.234Z,-3.00
2019-02-22T18:05:04.738Z,-3.10
2019-02-22T18:15:10.261Z,-3.10
2019-02-22T18:25:15.754Z,-3.20
2019-02-22T18:35:21.312Z,-3.30
2019-02-22T18:45:26.688Z,-3.30
2019-02-22T18:55:34.418Z,-3.40
2019-02-22T19:05:39.698Z,-3.30
2019-02-22T19:15:45.980Z,-3.30
2019-02-22T19:25:51.629Z,-3.30
2019-02-22T19:35:57.053Z,-3.30
2019-02-22T19:46:02.306Z,-3.30
2019-02-22T19:56:07.715Z,-3.30
2019-02-22T20:06:12.996Z,-3.40
2019-02-22T20:16:18.447Z,-3.50
2019-02-22T20:26:23.870Z,-3.50
2019-02-22T20:36:30.178Z,-3.50
2019-02-22T20:46:36.765Z,-3.50
2019-02-22T20:56:42.210Z,-3.50
2019-02-22T21:06:47.977Z,-3.70
2019-02-22T21:16:53.447Z,-3.70
2019-02-22T21:26:58.861Z,-3.70
2019-02-22T21:37:04.767Z,-3.70
2019-02-22T21:47:10.455Z,-3.80
2019-02-22T21:57:16.274Z,-3.90
2019-02-22T22:07:21.662Z,-3.90
2019-02-22T22:17:27.163Z,-3.90
2019-02-22T22:27:32.539Z,-3.90
2019-02-22T22:37:38.082Z,-3.90
2019-02-22T22:47:43.622Z,-4.00
2019-02-22T22:57:49.648Z,-4.00
2019-02-22T23:07:54.982Z,-4.00
2019-02-22T23:18:00.682Z,-4.10
2019-02-22T23:28:06.200Z,-4.10
2019-02-22T23:38:11.612Z,-4.20
2019-02-22T23:48:17.037Z,-4.20
2019-02-22T23:58:22.509Z,-4.20
